sensor_id;sensor_type;location;lat;lon;timestamp;temperature;humidity
19580;DHT22;9936;51.040;13.918;2023-02-26T00:00:10;0.30;99.90
19580;DHT22;9936;51.040;13.918;2023-02-26T00:04:01;0.20;99.90
19580;DHT22;9936;51.040;13.918;2023-02-26T00:07:47;0.30;99.90
19580;DHT22;9936;51.040;13.918;2023-02-26T00:11:33;0.20;99.90
19580;DHT22;9936;51.040;13.918;2023-02-26T00:15:19;0.10;99.90
19580;DHT22;9936;51.040;13.918;2023-02-26T00:19:06;0.10;99.90
19580;DHT22;9936;51.040;13.918;2023-02-26T00:22:52;0.10;99.90
19580;DHT22;9936;51.040;13.918;2023-02-26T00:26:38;0.20;99.90
19580;DHT22;9936;51.040;13.918;2023-02-26T00:30:24;0.20;99.90
19580;DHT22;9936;51.040;13.918;2023-02-26T00:34:13;0.10;99.90
19580;DHT22;9936;51.040;13.918;2023-02-26T00:38:09;0.20;99.90
19580;DHT22;9936;51.040;13.918;2023-02-26T00:41:56;0.10;99.90
19580;DHT22;9936;51.040;13.918;2023-02-26T00:50:18;0.10;99.90
19580;DHT22;9936;51.040;13.918;2023-02-26T00:54:22;0.20;99.90
19580;DHT22;9936;51.040;13.918;2023-02-26T00:58:08;0.20;99.90
19580;DHT22;9936;51.040;13.918;2023-02-26T01:01:53;0.10;99.90
19580;DHT22;9936;51.040;13.918;2023-02-26T01:05:39;0.00;99.90
19580;DHT22;9936;51.040;13.918;2023-02-26T01:09:29;0.00;99.90
19580;DHT22;9936;51.040;13.918;2023-02-26T01:13:17;0.00;99.90
19580;DHT22;9936;51.040;13.918;2023-02-26T01:17:17;0.00;99.90
19580;DHT22;9936;51.040;13.918;2023-02-26T01:21:04;0.00;99.90
19580;DHT22;9936;51.040;13.918;2023-02-26T01:25:06;0.00;99.90
19580;DHT22;9936;51.040;13.918;2023-02-26T01:28:52;0.00;99.90
19580;DHT22;9936;51.040;13.918;2023-02-26T01:36:44;0.20;99.90
19580;DHT22;9936;51.040;13.918;2023-02-26T01:48:37;0.30;99.90
19580;DHT22;9936;51.040;13.918;2023-02-26T01:56:32;0.30;99.90
19580;DHT22;9936;51.040;13.918;2023-02-26T02:00:18;0.30;99.90
19580;DHT22;9936;51.040;13.918;2023-02-26T02:04:06;0.30;99.90
19580;DHT22;9936;51.040;13.918;2023-02-26T02:07:54;0.40;99.90
19580;DHT22;9936;51.040;13.918;2023-02-26T02:31:56;0.20;99.90
19580;DHT22;9936;51.040;13.918;2023-02-26T02:36:05;0.20;99.90
19580;DHT22;9936;51.040;13.918;2023-02-26T02:40:17;0.30;99.90
19580;DHT22;9936;51.040;13.918;2023-02-26T02:44:07;0.30;99.90
19580;DHT22;9936;51.040;13.918;2023-02-26T02:52:06;0.10;99.90
19580;DHT22;9936;51.040;13.918;2023-02-26T02:56:06;0.00;99.90
19580;DHT22;9936;51.040;13.918;2023-02-26T03:00:06;0.00;99.90
19580;DHT22;9936;51.040;13.918;2023-02-26T03:04:14;0.00;99.90
19580;DHT22;9936;51.040;13.918;2023-02-26T03:08:13;0.10;99.90
19580;DHT22;9936;51.040;13.918;2023-02-26T03:12:00;0.10;99.90
19580;DHT22;9936;51.040;13.918;2023-02-26T03:16:06;0.30;99.90
19580;DHT22;9936;51.040;13.918;2023-02-26T03:24:28;0.20;99.90
19580;DHT22;9936;51.040;13.918;2023-02-26T03:28:25;0.00;99.90
19580;DHT22;9936;51.040;13.918;2023-02-26T03:32:23;0.20;99.90
19580;DHT22;9936;51.040;13.918;2023-02-26T03:36:17;0.20;99.90
19580;DHT22;9936;51.040;13.918;2023-02-26T03:40:35;0.10;99.90
19580;DHT22;9936;51.040;13.918;2023-02-26T03:44:29;0.10;99.90
19580;DHT22;9936;51.040;13.918;2023-02-26T03:48:19;0.30;99.90
19580;DHT22;9936;51.040;13.918;2023-02-26T03:52:06;0.30;99.90
19580;DHT22;9936;51.040;13.918;2023-02-26T03:56:00;0.20;99.90
19580;DHT22;9936;51.040;13.918;2023-02-26T03:59:48;0.20;99.90
19580;DHT22;9936;51.040;13.918;2023-02-26T04:03:49;0.30;99.90
19580;DHT22;9936;51.040;13.918;2023-02-26T04:07:38;0.20;99.90
19580;DHT22;9936;51.040;13.918;2023-02-26T04:11:24;0.20;99.90
19580;DHT22;9936;51.040;13.918;2023-02-26T04:15:10;0.20;99.90
19580;DHT22;9936;51.040;13.918;2023-02-26T04:18:56;0.20;99.90
19580;DHT22;9936;51.040;13.918;2023-02-26T04:22:42;0.20;99.90
19580;DHT22;9936;51.040;13.918;2023-02-26T04:26:27;0.30;99.90
19580;DHT22;9936;51.040;13.918;2023-02-26T04:30:13;0.30;99.90
19580;DHT22;9936;51.040;13.918;2023-02-26T04:33:59;0.30;99.90
19580;DHT22;9936;51.040;13.918;2023-02-26T04:37:44;0.30;99.90
19580;DHT22;9936;51.040;13.918;2023-02-26T04:41:30;0.30;99.90
19580;DHT22;9936;51.040;13.918;2023-02-26T04:45:16;0.30;99.90
19580;DHT22;9936;51.040;13.918;2023-02-26T04:49:01;0.30;99.90
19580;DHT22;9936;51.040;13.918;2023-02-26T04:52:47;0.20;99.90
19580;DHT22;9936;51.040;13.918;2023-02-26T04:56:32;0.20;99.90
19580;DHT22;9936;51.040;13.918;2023-02-26T05:00:18;0.20;99.90
19580;DHT22;9936;51.040;13.918;2023-02-26T05:04:04;0.20;99.90
19580;DHT22;9936;51.040;13.918;2023-02-26T05:07:50;0.20;99.90
19580;DHT22;9936;51.040;13.918;2023-02-26T05:11:38;0.20;99.90
19580;DHT22;9936;51.040;13.918;2023-02-26T05:15:23;0.20;99.90
19580;DHT22;9936;51.040;13.918;2023-02-26T05:19:09;0.10;99.90
19580;DHT22;9936;51.040;13.918;2023-02-26T05:22:55;0.10;99.90
19580;DHT22;9936;51.040;13.918;2023-02-26T05:26:41;0.10;99.90
19580;DHT22;9936;51.040;13.918;2023-02-26T05:30:26;0.30;99.90
19580;DHT22;9936;51.040;13.918;2023-02-26T05:34:12;0.20;99.90
19580;DHT22;9936;51.040;13.918;2023-02-26T05:37:59;0.20;99.90
19580;DHT22;9936;51.040;13.918;2023-02-26T05:41:44;0.30;99.90
19580;DHT22;9936;51.040;13.918;2023-02-26T05:45:31;0.40;99.90
19580;DHT22;9936;51.040;13.918;2023-02-26T05:49:17;0.20;99.90
19580;DHT22;9936;51.040;13.918;2023-02-26T05:53:02;0.30;99.90
19580;DHT22;9936;51.040;13.918;2023-02-26T05:56:48;0.10;99.90
19580;DHT22;9936;51.040;13.918;2023-02-26T06:00:33;0.00;99.90
19580;DHT22;9936;51.040;13.918;2023-02-26T06:04:19;0.10;99.90
19580;DHT22;9936;51.040;13.918;2023-02-26T06:08:05;0.10;99.90
19580;DHT22;9936;51.040;13.918;2023-02-26T06:11:50;0.10;99.90
19580;DHT22;9936;51.040;13.918;2023-02-26T06:15:37;0.00;99.90
19580;DHT22;9936;51.040;13.918;2023-02-26T06:19:23;0.10;99.90
19580;DHT22;9936;51.040;13.918;2023-02-26T06:23:08;0.10;99.90
19580;DHT22;9936;51.040;13.918;2023-02-26T06:26:55;0.10;99.90
19580;DHT22;9936;51.040;13.918;2023-02-26T06:30:41;-0.10;99.90
19580;DHT22;9936;51.040;13.918;2023-02-26T06:34:27;-0.10;99.90
19580;DHT22;9936;51.040;13.918;2023-02-26T06:38:13;-0.20;99.90
19580;DHT22;9936;51.040;13.918;2023-02-26T06:41:59;-0.30;99.90
19580;DHT22;9936;51.040;13.918;2023-02-26T06:45:44;-0.20;99.90
19580;DHT22;9936;51.040;13.918;2023-02-26T06:49:30;-0.20;99.90
19580;DHT22;9936;51.040;13.918;2023-02-26T06:53:16;-0.20;99.90
19580;DHT22;9936;51.040;13.918;2023-02-26T06:57:01;-0.20;99.90
19580;DHT22;9936;51.040;13.918;2023-02-26T07:00:47;-0.20;99.90
19580;DHT22;9936;51.040;13.918;2023-02-26T07:04:33;-0.20;99.90
19580;DHT22;9936;51.040;13.918;2023-02-26T07:08:18;-0.30;99.90
19580;DHT22;9936;51.040;13.918;2023-02-26T07:12:04;-0.30;99.90
19580;DHT22;9936;51.040;13.918;2023-02-26T07:15:51;-0.30;99.90
19580;DHT22;9936;51.040;13.918;2023-02-26T07:19:37;-0.20;99.90
19580;DHT22;9936;51.040;13.918;2023-02-26T07:23:22;-0.20;99.90
19580;DHT22;9936;51.040;13.918;2023-02-26T07:27:08;-0.20;99.90
19580;DHT22;9936;51.040;13.918;2023-02-26T07:30:55;-0.20;99.90
19580;DHT22;9936;51.040;13.918;2023-02-26T07:34:41;-0.30;99.90
19580;DHT22;9936;51.040;13.918;2023-02-26T07:38:27;-0.40;99.90
19580;DHT22;9936;51.040;13.918;2023-02-26T07:42:12;-0.40;99.90
19580;DHT22;9936;51.040;13.918;2023-02-26T07:45:58;-0.30;99.90
19580;DHT22;9936;51.040;13.918;2023-02-26T07:49:44;0.10;99.90
19580;DHT22;9936;51.040;13.918;2023-02-26T07:53:29;0.30;99.90
19580;DHT22;9936;51.040;13.918;2023-02-26T07:57:15;0.70;99.90
19580;DHT22;9936;51.040;13.918;2023-02-26T08:01:00;1.00;99.90
19580;DHT22;9936;51.040;13.918;2023-02-26T08:04:46;1.30;99.90
19580;DHT22;9936;51.040;13.918;2023-02-26T08:08:32;1.30;99.90
19580;DHT22;9936;51.040;13.918;2023-02-26T08:12:20;1.30;99.90
19580;DHT22;9936;51.040;13.918;2023-02-26T08:16:05;1.40;99.90
19580;DHT22;9936;51.040;13.918;2023-02-26T08:19:51;1.40;99.90
19580;DHT22;9936;51.040;13.918;2023-02-26T08:23:37;1.50;99.90
19580;DHT22;9936;51.040;13.918;2023-02-26T08:27:22;1.50;99.90
19580;DHT22;9936;51.040;13.918;2023-02-26T08:31:08;1.60;99.90
19580;DHT22;9936;51.040;13.918;2023-02-26T08:34:54;1.60;99.90
19580;DHT22;9936;51.040;13.918;2023-02-26T08:38:40;1.50;99.90
19580;DHT22;9936;51.040;13.918;2023-02-26T08:42:25;1.40;99.90
19580;DHT22;9936;51.040;13.918;2023-02-26T08:46:11;1.50;99.90
19580;DHT22;9936;51.040;13.918;2023-02-26T08:49:56;1.50;99.90
19580;DHT22;9936;51.040;13.918;2023-02-26T08:53:43;1.30;99.90
19580;DHT22;9936;51.040;13.918;2023-02-26T08:57:30;1.50;99.90
19580;DHT22;9936;51.040;13.918;2023-02-26T09:01:16;1.30;99.90
19580;DHT22;9936;51.040;13.918;2023-02-26T09:05:02;1.40;99.90
19580;DHT22;9936;51.040;13.918;2023-02-26T09:08:47;1.30;99.90
19580;DHT22;9936;51.040;13.918;2023-02-26T09:12:33;1.30;99.90
19580;DHT22;9936;51.040;13.918;2023-02-26T09:16:21;1.20;99.90
19580;DHT22;9936;51.040;13.918;2023-02-26T09:20:08;1.10;99.90
19580;DHT22;9936;51.040;13.918;2023-02-26T09:23:54;1.10;99.90
19580;DHT22;9936;51.040;13.918;2023-02-26T09:27:40;0.90;99.90
19580;DHT22;9936;51.040;13.918;2023-02-26T09:31:25;1.00;99.90
19580;DHT22;9936;51.040;13.918;2023-02-26T09:35:12;1.20;99.90
19580;DHT22;9936;51.040;13.918;2023-02-26T09:38:58;1.10;99.90
19580;DHT22;9936;51.040;13.918;2023-02-26T09:42:58;1.30;99.90
19580;DHT22;9936;51.040;13.918;2023-02-26T09:47:29;1.30;99.90
19580;DHT22;9936;51.040;13.918;2023-02-26T09:51:20;1.30;99.90
19580;DHT22;9936;51.040;13.918;2023-02-26T09:55:29;1.20;99.90
19580;DHT22;9936;51.040;13.918;2023-02-26T09:59:14;1.20;99.90
19580;DHT22;9936;51.040;13.918;2023-02-26T10:07:03;1.20;99.90
19580;DHT22;9936;51.040;13.918;2023-02-26T10:11:13;1.20;99.90
19580;DHT22;9936;51.040;13.918;2023-02-26T10:19:09;1.30;99.90
19580;DHT22;9936;51.040;13.918;2023-02-26T10:27:08;1.20;99.90
19580;DHT22;9936;51.040;13.918;2023-02-26T10:31:01;1.30;99.90
19580;DHT22;9936;51.040;13.918;2023-02-26T10:35:02;1.40;99.90
19580;DHT22;9936;51.040;13.918;2023-02-26T10:38:53;1.40;99.90
19580;DHT22;9936;51.040;13.918;2023-02-26T10:42:51;1.60;99.90
19580;DHT22;9936;51.040;13.918;2023-02-26T10:50:32;1.70;99.90
19580;DHT22;9936;51.040;13.918;2023-02-26T10:54:37;1.80;99.90
19580;DHT22;9936;51.040;13.918;2023-02-26T10:58:24;1.80;99.90
19580;DHT22;9936;51.040;13.918;2023-02-26T11:06:21;1.80;99.90
19580;DHT22;9936;51.040;13.918;2023-02-26T11:10:17;1.90;99.90
19580;DHT22;9936;51.040;13.918;2023-02-26T11:14:03;1.80;99.90
19580;DHT22;9936;51.040;13.918;2023-02-26T11:17:53;1.70;99.90
19580;DHT22;9936;51.040;13.918;2023-02-26T11:21:43;1.70;99.90
19580;DHT22;9936;51.040;13.918;2023-02-26T11:25:31;1.70;99.90
19580;DHT22;9936;51.040;13.918;2023-02-26T11:29:20;1.80;99.90
19580;DHT22;9936;51.040;13.918;2023-02-26T11:37:35;1.80;99.90
19580;DHT22;9936;51.040;13.918;2023-02-26T11:41:22;1.90;99.90
19580;DHT22;9936;51.040;13.918;2023-02-26T11:45:13;2.00;99.90
19580;DHT22;9936;51.040;13.918;2023-02-26T11:49:01;2.10;99.90
19580;DHT22;9936;51.040;13.918;2023-02-26T11:52:56;2.20;99.90
19580;DHT22;9936;51.040;13.918;2023-02-26T11:56:48;2.20;99.90
19580;DHT22;9936;51.040;13.918;2023-02-26T12:00:36;2.30;99.90
19580;DHT22;9936;51.040;13.918;2023-02-26T12:04:25;2.10;99.90
19580;DHT22;9936;51.040;13.918;2023-02-26T12:08:33;2.10;99.90
19580;DHT22;9936;51.040;13.918;2023-02-26T12:24:59;2.30;99.90
19580;DHT22;9936;51.040;13.918;2023-02-26T12:41:36;2.60;99.90
19580;DHT22;9936;51.040;13.918;2023-02-26T12:54:23;2.60;99.90
19580;DHT22;9936;51.040;13.918;2023-02-26T13:02:49;2.50;99.90
19580;DHT22;9936;51.040;13.918;2023-02-26T13:10:51;2.40;99.90
19580;DHT22;9936;51.040;13.918;2023-02-26T13:15:06;2.50;99.90
19580;DHT22;9936;51.040;13.918;2023-02-26T13:23:14;2.50;99.90
19580;DHT22;9936;51.040;13.918;2023-02-26T13:27:02;2.50;99.90
19580;DHT22;9936;51.040;13.918;2023-02-26T13:30:52;2.50;99.90
19580;DHT22;9936;51.040;13.918;2023-02-26T13:38:48;2.60;99.90
19580;DHT22;9936;51.040;13.918;2023-02-26T13:51:13;2.30;99.90
19580;DHT22;9936;51.040;13.918;2023-02-26T13:55:02;2.00;99.90
19580;DHT22;9936;51.040;13.918;2023-02-26T13:59:03;2.00;99.90
19580;DHT22;9936;51.040;13.918;2023-02-26T14:02:55;1.90;99.90
19580;DHT22;9936;51.040;13.918;2023-02-26T14:06:46;2.00;99.90
19580;DHT22;9936;51.040;13.918;2023-02-26T14:26:17;2.00;99.90
19580;DHT22;9936;51.040;13.918;2023-02-26T14:37:42;1.90;99.90
19580;DHT22;9936;51.040;13.918;2023-02-26T14:41:31;2.00;99.90
19580;DHT22;9936;51.040;13.918;2023-02-26T14:49:38;2.00;99.90
19580;DHT22;9936;51.040;13.918;2023-02-26T15:14:18;1.30;99.90
19580;DHT22;9936;51.040;13.918;2023-02-26T15:26:22;1.20;99.90
19580;DHT22;9936;51.040;13.918;2023-02-26T15:30:14;1.20;99.90
19580;DHT22;9936;51.040;13.918;2023-02-26T15:34:01;1.30;99.90
19580;DHT22;9936;51.040;13.918;2023-02-26T15:37:53;1.40;99.90
19580;DHT22;9936;51.040;13.918;2023-02-26T15:41:40;1.50;99.90
19580;DHT22;9936;51.040;13.918;2023-02-26T15:45:27;1.60;99.90
19580;DHT22;9936;51.040;13.918;2023-02-26T15:49:24;1.70;99.90
19580;DHT22;9936;51.040;13.918;2023-02-26T15:53:29;1.90;99.90
19580;DHT22;9936;51.040;13.918;2023-02-26T15:57:18;2.20;99.90
19580;DHT22;9936;51.040;13.918;2023-02-26T16:01:05;2.40;99.90
19580;DHT22;9936;51.040;13.918;2023-02-26T16:04:51;2.50;99.90
19580;DHT22;9936;51.040;13.918;2023-02-26T16:08:41;2.60;99.90
19580;DHT22;9936;51.040;13.918;2023-02-26T16:12:35;2.70;99.90
19580;DHT22;9936;51.040;13.918;2023-02-26T16:16:41;2.70;99.90
19580;DHT22;9936;51.040;13.918;2023-02-26T16:20:39;2.80;99.90
19580;DHT22;9936;51.040;13.918;2023-02-26T16:24:26;2.70;99.90
19580;DHT22;9936;51.040;13.918;2023-02-26T16:28:21;2.90;99.90
19580;DHT22;9936;51.040;13.918;2023-02-26T16:32:09;2.80;99.90
19580;DHT22;9936;51.040;13.918;2023-02-26T16:36:05;2.80;99.90
19580;DHT22;9936;51.040;13.918;2023-02-26T16:47:32;2.80;99.90
19580;DHT22;9936;51.040;13.918;2023-02-26T16:51:20;2.70;99.90
19580;DHT22;9936;51.040;13.918;2023-02-26T16:55:09;2.60;99.90
19580;DHT22;9936;51.040;13.918;2023-02-26T17:02:50;2.60;99.90
19580;DHT22;9936;51.040;13.918;2023-02-26T17:06:38;2.50;99.90
19580;DHT22;9936;51.040;13.918;2023-02-26T17:10:39;2.40;99.90
19580;DHT22;9936;51.040;13.918;2023-02-26T17:14:25;2.40;99.90
19580;DHT22;9936;51.040;13.918;2023-02-26T17:18:12;2.40;99.90
19580;DHT22;9936;51.040;13.918;2023-02-26T17:22:03;2.40;99.90
19580;DHT22;9936;51.040;13.918;2023-02-26T17:25:53;2.20;99.90
19580;DHT22;9936;51.040;13.918;2023-02-26T17:29:43;2.30;99.90
19580;DHT22;9936;51.040;13.918;2023-02-26T17:33:32;2.30;99.90
19580;DHT22;9936;51.040;13.918;2023-02-26T17:37:19;2.40;99.90
19580;DHT22;9936;51.040;13.918;2023-02-26T17:41:05;2.30;99.90
19580;DHT22;9936;51.040;13.918;2023-02-26T17:44:52;2.30;99.90
19580;DHT22;9936;51.040;13.918;2023-02-26T17:48:40;2.30;99.90
19580;DHT22;9936;51.040;13.918;2023-02-26T17:52:31;2.30;99.90
19580;DHT22;9936;51.040;13.918;2023-02-26T17:56:28;2.20;99.90
19580;DHT22;9936;51.040;13.918;2023-02-26T18:00:16;2.10;99.90
19580;DHT22;9936;51.040;13.918;2023-02-26T18:04:02;2.00;99.90
19580;DHT22;9936;51.040;13.918;2023-02-26T18:07:48;2.00;99.90
19580;DHT22;9936;51.040;13.918;2023-02-26T18:11:33;1.90;99.90
19580;DHT22;9936;51.040;13.918;2023-02-26T18:15:19;1.90;99.90
19580;DHT22;9936;51.040;13.918;2023-02-26T18:19:05;1.90;99.90
19580;DHT22;9936;51.040;13.918;2023-02-26T18:22:52;1.80;99.90
19580;DHT22;9936;51.040;13.918;2023-02-26T18:26:38;1.70;99.90
19580;DHT22;9936;51.040;13.918;2023-02-26T18:30:26;1.90;99.90
19580;DHT22;9936;51.040;13.918;2023-02-26T18:34:12;1.70;99.90
19580;DHT22;9936;51.040;13.918;2023-02-26T18:37:58;1.80;99.90
19580;DHT22;9936;51.040;13.918;2023-02-26T18:41:44;1.70;99.90
19580;DHT22;9936;51.040;13.918;2023-02-26T18:45:31;1.60;99.90
19580;DHT22;9936;51.040;13.918;2023-02-26T18:49:20;1.60;99.90
19580;DHT22;9936;51.040;13.918;2023-02-26T18:53:06;1.60;99.90
19580;DHT22;9936;51.040;13.918;2023-02-26T18:56:52;1.50;99.90
19580;DHT22;9936;51.040;13.918;2023-02-26T19:00:43;1.50;99.90
19580;DHT22;9936;51.040;13.918;2023-02-26T19:04:28;1.60;99.90
19580;DHT22;9936;51.040;13.918;2023-02-26T19:08:15;1.50;99.90
19580;DHT22;9936;51.040;13.918;2023-02-26T19:12:01;1.50;99.90
19580;DHT22;9936;51.040;13.918;2023-02-26T19:15:47;1.50;99.90
19580;DHT22;9936;51.040;13.918;2023-02-26T19:19:35;1.40;99.90
19580;DHT22;9936;51.040;13.918;2023-02-26T19:23:21;1.40;99.90
19580;DHT22;9936;51.040;13.918;2023-02-26T19:27:07;1.40;99.90
19580;DHT22;9936;51.040;13.918;2023-02-26T19:30:53;1.40;99.90
19580;DHT22;9936;51.040;13.918;2023-02-26T19:34:40;1.40;99.90
19580;DHT22;9936;51.040;13.918;2023-02-26T19:38:26;1.40;99.90
19580;DHT22;9936;51.040;13.918;2023-02-26T19:42:11;1.40;99.90
19580;DHT22;9936;51.040;13.918;2023-02-26T19:46:00;1.40;99.90
19580;DHT22;9936;51.040;13.918;2023-02-26T19:49:46;1.50;99.90
19580;DHT22;9936;51.040;13.918;2023-02-26T19:53:32;1.40;99.90
19580;DHT22;9936;51.040;13.918;2023-02-26T19:57:21;1.40;99.90
19580;DHT22;9936;51.040;13.918;2023-02-26T20:01:06;1.40;99.90
19580;DHT22;9936;51.040;13.918;2023-02-26T20:04:56;1.40;99.90
19580;DHT22;9936;51.040;13.918;2023-02-26T20:08:42;1.30;99.90
19580;DHT22;9936;51.040;13.918;2023-02-26T20:12:27;1.30;99.90
19580;DHT22;9936;51.040;13.918;2023-02-26T20:16:14;1.30;99.90
19580;DHT22;9936;51.040;13.918;2023-02-26T20:20:00;1.30;99.90
19580;DHT22;9936;51.040;13.918;2023-02-26T20:23:46;1.30;99.90
19580;DHT22;9936;51.040;13.918;2023-02-26T20:27:32;1.20;99.90
19580;DHT22;9936;51.040;13.918;2023-02-26T20:31:18;1.10;99.90
19580;DHT22;9936;51.040;13.918;2023-02-26T20:35:07;1.10;99.90
19580;DHT22;9936;51.040;13.918;2023-02-26T20:38:54;1.10;99.90
19580;DHT22;9936;51.040;13.918;2023-02-26T20:42:45;1.10;99.90
19580;DHT22;9936;51.040;13.918;2023-02-26T20:46:31;1.10;99.90
19580;DHT22;9936;51.040;13.918;2023-02-26T20:50:20;1.00;99.90
19580;DHT22;9936;51.040;13.918;2023-02-26T20:54:06;1.00;99.90
19580;DHT22;9936;51.040;13.918;2023-02-26T20:57:52;1.00;99.90
19580;DHT22;9936;51.040;13.918;2023-02-26T21:01:39;1.00;99.90
19580;DHT22;9936;51.040;13.918;2023-02-26T21:05:25;1.00;99.90
19580;DHT22;9936;51.040;13.918;2023-02-26T21:09:10;1.00;99.90
19580;DHT22;9936;51.040;13.918;2023-02-26T21:12:57;1.00;99.90
19580;DHT22;9936;51.040;13.918;2023-02-26T21:16:42;1.10;99.90
19580;DHT22;9936;51.040;13.918;2023-02-26T21:20:28;1.00;99.90
19580;DHT22;9936;51.040;13.918;2023-02-26T21:24:14;1.00;99.90
19580;DHT22;9936;51.040;13.918;2023-02-26T21:27:59;1.00;99.90
19580;DHT22;9936;51.040;13.918;2023-02-26T21:31:45;0.90;99.90
19580;DHT22;9936;51.040;13.918;2023-02-26T21:35:31;0.90;99.90
19580;DHT22;9936;51.040;13.918;2023-02-26T21:39:16;0.90;99.90
19580;DHT22;9936;51.040;13.918;2023-02-26T21:43:02;0.90;99.90
19580;DHT22;9936;51.040;13.918;2023-02-26T21:46:51;0.80;99.90
19580;DHT22;9936;51.040;13.918;2023-02-26T21:50:37;0.80;99.90
19580;DHT22;9936;51.040;13.918;2023-02-26T21:54:23;0.80;99.90
19580;DHT22;9936;51.040;13.918;2023-02-26T21:58:08;0.80;99.90
19580;DHT22;9936;51.040;13.918;2023-02-26T22:01:54;0.80;99.90
19580;DHT22;9936;51.040;13.918;2023-02-26T22:05:39;0.80;99.90
19580;DHT22;9936;51.040;13.918;2023-02-26T22:09:25;0.80;99.90
19580;DHT22;9936;51.040;13.918;2023-02-26T22:13:11;0.70;99.90
19580;DHT22;9936;51.040;13.918;2023-02-26T22:16:56;0.70;99.90
19580;DHT22;9936;51.040;13.918;2023-02-26T22:20:42;0.80;99.90
19580;DHT22;9936;51.040;13.918;2023-02-26T22:24:28;0.70;99.90
19580;DHT22;9936;51.040;13.918;2023-02-26T22:28:14;0.70;99.90
19580;DHT22;9936;51.040;13.918;2023-02-26T22:31:59;0.60;99.90
19580;DHT22;9936;51.040;13.918;2023-02-26T22:35:45;0.70;99.90
19580;DHT22;9936;51.040;13.918;2023-02-26T22:39:31;0.60;99.90
19580;DHT22;9936;51.040;13.918;2023-02-26T22:43:17;0.60;99.90
19580;DHT22;9936;51.040;13.918;2023-02-26T22:47:03;0.50;99.90
19580;DHT22;9936;51.040;13.918;2023-02-26T22:50:49;0.50;99.90
19580;DHT22;9936;51.040;13.918;2023-02-26T22:54:35;0.40;99.90
19580;DHT22;9936;51.040;13.918;2023-02-26T22:58:23;0.50;99.90
19580;DHT22;9936;51.040;13.918;2023-02-26T23:02:08;0.40;99.90
19580;DHT22;9936;51.040;13.918;2023-02-26T23:05:54;0.40;99.90
19580;DHT22;9936;51.040;13.918;2023-02-26T23:09:41;0.40;99.90
19580;DHT22;9936;51.040;13.918;2023-02-26T23:13:28;0.40;99.90
19580;DHT22;9936;51.040;13.918;2023-02-26T23:17:15;0.30;99.90
19580;DHT22;9936;51.040;13.918;2023-02-26T23:21:00;0.40;99.90
19580;DHT22;9936;51.040;13.918;2023-02-26T23:24:47;0.30;99.90
19580;DHT22;9936;51.040;13.918;2023-02-26T23:28:32;0.30;99.90
19580;DHT22;9936;51.040;13.918;2023-02-26T23:32:18;0.30;99.90
19580;DHT22;9936;51.040;13.918;2023-02-26T23:36:04;0.20;99.90
19580;DHT22;9936;51.040;13.918;2023-02-26T23:39:49;0.20;99.90
19580;DHT22;9936;51.040;13.918;2023-02-26T23:43:35;0.20;99.90
19580;DHT22;9936;51.040;13.918;2023-02-26T23:47:21;0.10;99.90
19580;DHT22;9936;51.040;13.918;2023-02-26T23:51:06;0.10;99.90
19580;DHT22;9936;51.040;13.918;2023-02-26T23:54:52;0.10;99.90
19580;DHT22;9936;51.040;13.918;2023-02-26T23:58:38;0.00;99.90
